Observations for BOLOGNA BORGO AFB, Italy (LIPE)

LIPE 240850Z VRB02KT CAVOK 28/17 Q1018  
LIPE 240820Z VRB03KT CAVOK 27/17 Q1018  
LIPE 240750Z VRB02KT CAVOK 27/17 Q1018  
LIPE 240720Z VRB01KT CAVOK 26/16 Q1018  
LIPE 240650Z VRB02KT CAVOK 25/16 Q1018  
LIPE 240620Z 19005KT CAVOK 23/17 Q1018  
LIPE 240550Z 19004KT CAVOK 22/17 Q1018  
LIPE 240520Z 20005KT CAVOK 21/17 Q1018  
LIPE 240450Z 21006KT CAVOK 20/16 Q1018  
LIPE 240420Z 20006KT CAVOK 20/16 Q1018  
LIPE 240350Z 21008KT CAVOK 20/16 Q1017  
LIPE 240320Z 20007KT CAVOK 20/16 Q1017  
LIPE 240250Z 20008KT CAVOK 20/16 Q1017  
LIPE 240220Z 19009KT CAVOK 20/16 Q1017  
LIPE 240150Z 20006KT CAVOK 20/16 Q1017  
LIPE 240120Z 22003KT 190V250 CAVOK 21/16 Q1017  
LIPE 240050Z 20005KT 160V220 CAVOK 21/17 Q1017  
LIPE 240020Z 20007KT CAVOK 21/17 Q1017  
LIPE 232350Z 20008KT CAVOK 21/17 Q1017  
LIPE 232320Z 20006KT CAVOK 22/17 Q1016  
LIPE 232250Z 19005KT CAVOK 22/17 Q1016  
LIPE 232220Z 18004KT CAVOK 22/17 Q1016  
LIPE 232150Z 17003KT 120V190 CAVOK 22/17 Q1016  
LIPE 232120Z 19005KT CAVOK 23/18 Q1016  
LIPE 232050Z 19004KT CAVOK 24/17 Q1016  
LIPE 232020Z VRB02KT CAVOK 24/16 Q1015  
LIPE 231950Z 12004KT CAVOK 24/16 Q1015  
LIPE 231920Z 10003KT CAVOK 25/16 Q1015  
LIPE 231850Z 06003KT CAVOK 27/16 Q1014  
LIPE 231820Z 03004KT CAVOK 28/15 Q1014  
LIPE 231750Z 03005KT CAVOK 29/16 Q1014  
LIPE 231720Z 02003KT 250V060 CAVOK 29/16 Q1014  
LIPE 231650Z VRB02KT CAVOK 30/16 Q1013  
LIPE 231620Z 26004KT 220V320 CAVOK 30/15 Q1014  
LIPE 231550Z 31004KT 260V350 CAVOK 30/15 Q1014  
LIPE 231520Z 32003KT 230V010 CAVOK 29/15 Q1014  
LIPE 231450Z VRB04KT CAVOK 30/16 Q1014  
LIPE 231420Z VRB03KT CAVOK 29/16 Q1014  
LIPE 231350Z 34004KT 230V020 9999 FEW040 29/17 Q1014
LIPE 231320Z VRB04KT 9999 FEW040 28/17 Q1014
LIPE 231250Z VRB02KT 9999 FEW045 28/17 Q1014
LIPE 231220Z VRB04KT 9999 FEW045 28/17 Q1015
LIPE 231150Z 01004KT 290V070 9999 FEW045 27/16 Q1015
LIPE 231120Z VRB05KT 9999 FEW045 27/16 Q1015
LIPE 231050Z 36004KT 240V040 CAVOK 26/17 Q1015  
LIPE 231020Z 28005KT 240V360 CAVOK 26/17 Q1015  
LIPE 230950Z 26006KT 220V310 CAVOK 25/18 Q1015  
LIPE 230920Z VRB04KT CAVOK 24/16 Q1015  
LIPE 230850Z 30005KT 250V020 CAVOK 24/17 Q1015  
LIPE 230820Z 28007KT 250V330 CAVOK 23/17 Q1015